Ana Sayfa
METAR-TAF:

METAR-TAF

Havaalanları :

Mount Gambier, Avustralya

Enlem: 37-44-44S, Boylam: 140-47-07E, yükseklik: 65 m

Güncel hava durumu gözlemi

Rapor saat 16:00 UTC de 1 saat ve 8 dakika önce yapıldı.
Rüzgar kuzeybatıdan 6 kt
Sıcaklık 4°C
Nem 93%
Basınç 1025 hPa
Görüş mesafesi 10 km veya daha fazla
5800 ft yükseklikte parçalı bulutlu

METAR: YMTG 181600Z AUTO 31006KT 9999 // SCT058 04/03 Q1025

Saat: 02:38 (17:08 UTC)


TAF: eksik

4.000'den fazla havaalanı için hava durumu gözlemleri ve tahminleri (METAR ve TAF raporları).

Kullanılabilir istasyonlar harita üzerinde sarı ve kırmızı noktalarla gösterilir.

İstasyonun adını görmek için fareyi noktanın üzerinde gezdirin.

Sonrasında hava gözlem ve tahminlerini görmek için tıklayın.

Haritayı değiştirmek için: yaklaştırmak için siyah artı işaretli yeşil düğmeye ve uzaklaştırmak için de eksi işaretli düğmeye hızla tıklayın; bitişik haritalar için yeşil okları kullanın.


METAR-TAF: